This is the latest recevied weather packets stored in our database for station/object N0EDB-13. If no packets are shown the sender has not sent any weather packets the latest 10 day(s).
| Time | Temp. | Humidity | Pressure | Rain* | Wind** | Luminosity | Snow |
|---|---|---|---|---|---|---|---|
| 1777783467 | 12.22° C | 27% | 1498.3 hPa | 0 mm | - | 0 W/m² | - |
| 1777783167 | 12.22° C | 27% | 1498.3 hPa | 0 mm | - | 0 W/m² | - |
| 1777782866 | 11.67° C | 27% | 1498.5 hPa | 0 mm | - | 0 W/m² | - |
| 1777782566 | 11.67° C | 27% | 1498.7 hPa | 0 mm | - | 0 W/m² | - |
| 1777782265 | 12.22° C | 27% | 1497.8 hPa | 0 mm | - | 0 W/m² | - |
| 1777781963 | 12.22° C | 28% | 1496.9 hPa | 0 mm | - | 0 W/m² | - |
| 1777781663 | 12.78° C | 27% | 1496 hPa | 0 mm | - | 0 W/m² | - |
| 1777781362 | 12.78° C | 26% | 1495.4 hPa | 0 mm | - | 0 W/m² | - |
| 1777781062 | 13.33° C | 25% | 1494.7 hPa | 0 mm | - | 0 W/m² | - |
| 1777780761 | 13.33° C | 25% | 1494.2 hPa | 0 mm | - | 0 W/m² | - |
| 1777780461 | 13.33° C | 24% | 1494.6 hPa | 0 mm | - | 0 W/m² | - |
| 1777780161 | 12.78° C | 24% | 1495.5 hPa | 0 mm | - | 0 W/m² | - |
| 1777779860 | 12.78° C | 26% | 1496 hPa | 0 mm | - | 0 W/m² | - |
| 1777779560 | 12.78° C | 26% | 1495.9 hPa | 0 mm | - | 0 W/m² | - |
| 1777779259 | 12.78° C | 26% | 1495.8 hPa | 0 mm | - | 0 W/m² | - |
| 1777778958 | 12.78° C | 27% | 1495.6 hPa | 0 mm | - | 0 W/m² | - |
| 1777778658 | 12.78° C | 27% | 1494.8 hPa | 0 mm | - | 0 W/m² | - |
| 1777778357 | 13.33° C | 26% | 1493.8 hPa | 0 mm | - | 0 W/m² | - |
| 1777778057 | 13.89° C | 25% | 1492.9 hPa | 0 mm | - | 0 W/m² | - |
| 1777777756 | 13.89° C | 24% | 1492.4 hPa | 0 mm | - | 0 W/m² | - |
| 1777777456 | 13.89° C | 23% | 1492 hPa | 0 mm | - | 0 W/m² | - |
| 1777777156 | 13.89° C | 22% | 1492.1 hPa | 0 mm | - | 0 W/m² | - |
| 1777776856 | 13.89° C | 22% | 1492.3 hPa | 0 mm | - | 0 W/m² | - |
| 1777776555 | 13.89° C | 22% | 1492.7 hPa | 0 mm | - | 0 W/m² | - |
| 1777776254 | 13.33° C | 22% | 1493.1 hPa | 0 mm | - | 0 W/m² | - |
* Rain latest hour (hover to see other rain measurements)
** Current wind speed in m/s (hover to see current wind gust speed)